createdAt,value
2022-12-26T00:01:35.626Z,57.40
2022-12-26T00:04:52.377Z,57.60
2022-12-26T00:07:34.116Z,57.40
2022-12-26T00:10:21.513Z,57.40
2022-12-26T00:13:38.543Z,57.30
2022-12-26T00:16:19.527Z,57.40
2022-12-26T00:19:08.238Z,57.20
2022-12-26T00:21:57.568Z,57.20
2022-12-26T00:24:44.641Z,57.20
2022-12-26T00:27:31.547Z,57.20
2022-12-26T00:30:18.867Z,57.20
2022-12-26T00:33:09.017Z,57.30
2022-12-26T00:36:03.656Z,57.20
2022-12-26T00:38:52.258Z,57.00
2022-12-26T00:41:39.589Z,57.20
2022-12-26T00:44:26.623Z,57.20
2022-12-26T00:47:13.770Z,57.20
2022-12-26T00:50:14.845Z,57.20
2022-12-26T00:53:04.001Z,57.20
2022-12-26T00:55:51.562Z,57.10
2022-12-26T00:58:40.566Z,57.10
2022-12-26T01:01:31.012Z,57.10
2022-12-26T01:04:18.603Z,57.10
2022-12-26T01:07:05.621Z,57.00
2022-12-26T01:09:54.015Z,57.00
2022-12-26T01:12:41.553Z,57.00
2022-12-26T01:15:29.599Z,57.00
2022-12-26T01:18:16.573Z,57.00
2022-12-26T01:21:06.384Z,57.00
2022-12-26T01:23:53.538Z,56.90
2022-12-26T01:26:41.967Z,56.90
2022-12-26T01:29:29.333Z,56.80
2022-12-26T01:32:16.499Z,57.60
2022-12-26T01:35:03.866Z,57.60
2022-12-26T01:37:50.880Z,56.90
2022-12-26T01:40:37.952Z,56.90
2022-12-26T01:43:27.349Z,56.80
2022-12-26T01:46:14.715Z,56.80
2022-12-26T01:49:09.055Z,56.80
2022-12-26T01:52:03.619Z,56.80
2022-12-26T01:54:53.779Z,56.70
2022-12-26T01:57:45.812Z,56.80
2022-12-26T02:00:34.932Z,57.40
2022-12-26T02:03:39.405Z,56.70
2022-12-26T02:06:27.522Z,56.80
2022-12-26T02:09:15.164Z,56.70
2022-12-26T02:12:35.455Z,56.70
2022-12-26T02:15:19.349Z,56.60
2022-12-26T02:18:08.532Z,56.70
2022-12-26T02:21:34.446Z,56.70
2022-12-26T02:25:05.047Z,56.50
2022-12-26T02:28:29.768Z,56.40
2022-12-26T02:31:23.626Z,56.40
2022-12-26T02:34:16.924Z,56.50
2022-12-26T02:37:24.704Z,56.50
2022-12-26T02:40:29.158Z,56.40
2022-12-26T02:43:24.281Z,56.50
2022-12-26T02:46:40.343Z,56.50
2022-12-26T02:49:57.936Z,56.50
2022-12-26T02:53:19.303Z,56.50
2022-12-26T02:56:32.610Z,56.40
2022-12-26T02:59:53.945Z,56.50
2022-12-26T03:03:05.990Z,56.40
2022-12-26T03:06:16.797Z,56.50
2022-12-26T03:09:25.138Z,56.40
2022-12-26T03:12:45.775Z,56.50
2022-12-26T03:15:55.386Z,56.50
2022-12-26T03:18:59.035Z,56.60
2022-12-26T03:21:48.916Z,56.50
2022-12-26T03:25:01.121Z,56.60
2022-12-26T03:27:48.312Z,56.70
2022-12-26T03:30:51.230Z,56.60
2022-12-26T03:34:00.457Z,56.60
2022-12-26T03:37:48.889Z,56.60
2022-12-26T03:41:12.627Z,56.40
2022-12-26T03:44:32.223Z,56.40
2022-12-26T03:47:46.127Z,56.40
2022-12-26T03:50:57.279Z,56.50
2022-12-26T03:54:10.744Z,56.50
2022-12-26T03:57:20.455Z,56.40
2022-12-26T04:00:27.701Z,56.50
2022-12-26T04:03:45.223Z,56.50
2022-12-26T04:06:59.820Z,56.60
2022-12-26T04:10:12.825Z,56.50
2022-12-26T04:13:19.378Z,56.40
2022-12-26T04:16:33.493Z,56.60
2022-12-26T04:19:42.397Z,56.50
2022-12-26T04:22:58.776Z,56.40
2022-12-26T04:26:13.311Z,56.40
2022-12-26T04:29:19.619Z,56.40
2022-12-26T04:32:32.867Z,56.50
2022-12-26T04:35:42.612Z,56.40
2022-12-26T04:38:55.151Z,56.40
2022-12-26T04:42:03.100Z,56.40
2022-12-26T04:44:51.430Z,56.40
2022-12-26T04:47:58.720Z,56.50
2022-12-26T04:50:52.709Z,56.50
2022-12-26T04:53:40.240Z,56.30
2022-12-26T04:56:27.620Z,56.40
2022-12-26T04:59:17.254Z,56.40
2022-12-26T05:02:22.112Z,56.40
2022-12-26T05:05:28.062Z,56.40
2022-12-26T05:08:44.621Z,56.40
2022-12-26T05:11:35.559Z,56.20
2022-12-26T05:14:23.942Z,56.30
2022-12-26T05:17:32.828Z,56.30
2022-12-26T05:20:37.533Z,56.30
2022-12-26T05:23:45.544Z,56.40
2022-12-26T05:26:50.229Z,56.30
2022-12-26T05:29:38.623Z,56.30
2022-12-26T05:32:44.837Z,56.30
2022-12-26T05:35:33.343Z,56.40
2022-12-26T05:38:20.773Z,57.00
2022-12-26T05:41:07.963Z,56.30
2022-12-26T05:43:55.184Z,56.30
2022-12-26T05:46:44.050Z,56.30
2022-12-26T05:49:31.543Z,56.30
2022-12-26T05:52:18.646Z,56.30
2022-12-26T05:55:06.552Z,56.30
2022-12-26T05:57:54.507Z,56.30
2022-12-26T06:00:41.984Z,56.30
2022-12-26T06:03:30.547Z,56.30
2022-12-26T06:06:18.826Z,56.30
2022-12-26T06:09:06.251Z,56.30
2022-12-26T06:11:53.729Z,56.30
2022-12-26T06:14:40.809Z,56.30
2022-12-26T06:17:27.863Z,56.30
2022-12-26T06:20:16.796Z,56.40
2022-12-26T06:23:03.988Z,56.30
2022-12-26T06:25:57.985Z,56.30
2022-12-26T06:28:46.711Z,56.20
2022-12-26T06:31:33.928Z,56.30
2022-12-26T06:34:21.298Z,56.30
2022-12-26T06:37:10.161Z,56.30
2022-12-26T06:39:58.752Z,56.30
2022-12-26T06:42:45.699Z,56.30
2022-12-26T06:45:34.444Z,56.30
2022-12-26T06:48:21.551Z,56.30
2022-12-26T06:51:13.368Z,56.40
2022-12-26T06:54:03.405Z,56.40
2022-12-26T06:56:50.955Z,56.30
2022-12-26T06:59:39.011Z,56.40
2022-12-26T07:02:26.189Z,56.40
2022-12-26T07:04:54.888Z,56.40
2022-12-26T07:07:23.521Z,56.50
2022-12-26T07:09:53.972Z,56.60
2022-12-26T07:12:22.693Z,56.70
2022-12-26T07:14:52.063Z,56.80
2022-12-26T07:17:22.182Z,56.80
2022-12-26T07:19:51.288Z,56.80
2022-12-26T07:22:19.895Z,56.90
2022-12-26T07:24:48.936Z,56.90
2022-12-26T07:27:18.975Z,57.60
2022-12-26T07:29:48.487Z,56.90
2022-12-26T07:32:17.134Z,56.90
2022-12-26T07:34:45.747Z,57.00
2022-12-26T07:37:14.381Z,57.00
2022-12-26T07:39:43.039Z,57.10
2022-12-26T07:42:11.619Z,57.10
2022-12-26T07:44:42.957Z,57.10
2022-12-26T07:47:11.562Z,57.10
2022-12-26T07:49:40.317Z,57.10
2022-12-26T07:52:08.975Z,57.10
2022-12-26T07:54:37.724Z,57.10
2022-12-26T07:57:46.129Z,57.20
2022-12-26T07:59:56.660Z,57.20
2022-12-26T08:02:25.509Z,57.20
2022-12-26T08:04:54.324Z,57.20
2022-12-26T08:07:23.121Z,57.20
2022-12-26T08:09:51.763Z,57.20
2022-12-26T08:12:21.643Z,57.20
2022-12-26T08:14:50.716Z,57.20
2022-12-26T08:17:20.880Z,57.20
2022-12-26T08:19:49.584Z,57.30
2022-12-26T08:22:18.220Z,57.30
2022-12-26T08:24:48.359Z,57.20
2022-12-26T08:27:17.279Z,57.20
2022-12-26T08:29:45.915Z,57.90
2022-12-26T08:32:14.549Z,57.20
2022-12-26T08:34:44.583Z,57.20
2022-12-26T08:37:13.295Z,57.30
2022-12-26T08:39:41.965Z,57.30
2022-12-26T08:42:10.660Z,57.30
2022-12-26T08:44:39.283Z,57.30
2022-12-26T08:47:08.088Z,57.30
2022-12-26T08:49:36.734Z,57.40
2022-12-26T08:52:06.852Z,57.40
2022-12-26T08:54:35.946Z,57.50
2022-12-26T08:57:04.684Z,57.40
2022-12-26T08:59:33.346Z,57.50
2022-12-26T09:02:02.298Z,57.50
2022-12-26T09:04:31.255Z,57.50
2022-12-26T09:06:59.831Z,57.60
2022-12-26T09:09:31.212Z,57.60
2022-12-26T09:11:59.871Z,57.70
2022-12-26T09:14:28.515Z,57.60
2022-12-26T09:16:57.222Z,57.60
2022-12-26T09:19:29.795Z,57.60
2022-12-26T09:22:12.269Z,57.60
2022-12-26T09:24:42.398Z,57.60
2022-12-26T09:27:11.419Z,57.70
2022-12-26T09:29:40.319Z,57.60
2022-12-26T09:32:09.948Z,57.60
2022-12-26T09:34:38.792Z,57.70
2022-12-26T09:37:07.473Z,57.70
2022-12-26T09:39:37.822Z,57.60
2022-12-26T09:42:19.636Z,57.70
2022-12-26T09:44:58.508Z,57.70
2022-12-26T09:47:34.749Z,57.70
2022-12-26T09:50:12.014Z,57.70
2022-12-26T09:52:47.477Z,57.70
2022-12-26T09:55:37.200Z,57.70
2022-12-26T09:58:22.913Z,57.80
2022-12-26T10:00:56.861Z,57.70
2022-12-26T10:03:25.913Z,57.70
2022-12-26T10:06:10.703Z,57.70
2022-12-26T10:09:00.121Z,57.70
2022-12-26T10:11:43.491Z,57.70
2022-12-26T10:14:22.956Z,57.70
2022-12-26T10:16:58.740Z,57.70
2022-12-26T10:19:40.988Z,57.60
2022-12-26T10:22:45.075Z,57.70
2022-12-26T10:25:21.498Z,57.60
2022-12-26T10:27:52.459Z,57.60
2022-12-26T10:30:25.568Z,57.60
2022-12-26T10:33:00.900Z,57.60
2022-12-26T10:35:36.512Z,57.70
2022-12-26T10:38:12.993Z,57.60
2022-12-26T10:40:45.190Z,57.60
2022-12-26T10:43:26.454Z,57.60
2022-12-26T10:46:30.523Z,57.70
2022-12-26T10:48:59.738Z,57.60
2022-12-26T10:51:28.914Z,57.50
2022-12-26T10:53:57.699Z,57.50
2022-12-26T10:56:27.495Z,57.50
2022-12-26T10:59:03.799Z,57.60
2022-12-26T11:01:37.663Z,57.60
2022-12-26T11:04:18.867Z,57.60
2022-12-26T11:06:53.540Z,57.50
2022-12-26T11:09:37.257Z,57.60
2022-12-26T11:12:07.065Z,57.60
2022-12-26T11:14:39.448Z,57.60
2022-12-26T11:17:13.601Z,57.60
2022-12-26T11:19:45.263Z,57.70
2022-12-26T11:22:26.642Z,57.70
2022-12-26T11:25:17.917Z,57.70
2022-12-26T11:27:50.121Z,57.80
2022-12-26T11:30:29.603Z,57.70
2022-12-26T11:33:20.405Z,57.70
2022-12-26T11:35:55.078Z,57.80
2022-12-26T11:38:43.979Z,57.70
2022-12-26T11:41:36.240Z,57.80
2022-12-26T11:44:18.307Z,57.80
2022-12-26T11:46:51.610Z,57.80
2022-12-26T11:49:30.002Z,57.70
2022-12-26T11:52:00.763Z,57.80
2022-12-26T11:54:49.483Z,57.80
2022-12-26T11:57:22.302Z,57.80
2022-12-26T11:59:54.719Z,57.80
2022-12-26T12:02:28.091Z,57.70
2022-12-26T12:05:03.359Z,57.70
2022-12-26T12:08:14.473Z,57.80
2022-12-26T12:11:25.745Z,57.90
2022-12-26T12:14:11.589Z,57.80
2022-12-26T12:16:54.949Z,58.40
2022-12-26T12:19:41.613Z,57.80
2022-12-26T12:22:45.000Z,57.90
2022-12-26T12:25:31.548Z,57.80
2022-12-26T12:28:12.711Z,57.90
2022-12-26T12:30:51.427Z,57.90
2022-12-26T12:33:35.025Z,57.90
2022-12-26T12:36:12.988Z,57.90
2022-12-26T12:39:06.239Z,57.90
2022-12-26T12:42:12.012Z,57.90
2022-12-26T12:45:11.503Z,57.90
2022-12-26T12:47:52.970Z,58.00
2022-12-26T12:50:31.251Z,58.50
2022-12-26T12:53:20.273Z,57.90
2022-12-26T12:56:06.893Z,58.00
2022-12-26T12:58:45.785Z,57.90
2022-12-26T13:01:20.429Z,58.00
2022-12-26T13:03:54.629Z,57.90
2022-12-26T13:06:29.763Z,58.60
2022-12-26T13:09:04.627Z,57.90
2022-12-26T13:11:39.466Z,57.80
2022-12-26T13:14:15.071Z,57.90
2022-12-26T13:16:48.159Z,57.90
2022-12-26T13:19:21.762Z,57.90
2022-12-26T13:21:51.701Z,57.90
2022-12-26T13:24:27.423Z,57.90
2022-12-26T13:27:06.513Z,57.90
2022-12-26T13:29:40.600Z,57.90
2022-12-26T13:32:22.435Z,57.90
2022-12-26T13:34:52.867Z,57.90
2022-12-26T13:37:59.120Z,57.90
2022-12-26T13:40:31.585Z,58.00
2022-12-26T13:43:26.874Z,57.90
2022-12-26T13:45:58.187Z,58.00
2022-12-26T13:48:59.664Z,57.90
2022-12-26T13:51:52.241Z,58.10
2022-12-26T13:54:23.803Z,58.00
2022-12-26T13:57:37.309Z,57.90
2022-12-26T14:00:20.796Z,57.90
2022-12-26T14:03:29.052Z,57.90
2022-12-26T14:06:22.174Z,58.00
2022-12-26T14:09:18.507Z,57.90
2022-12-26T14:12:20.762Z,58.00
2022-12-26T14:15:20.979Z,57.90
2022-12-26T14:18:04.023Z,57.90
2022-12-26T14:20:43.891Z,57.90
2022-12-26T14:23:36.303Z,57.90
2022-12-26T14:26:20.612Z,58.00
2022-12-26T14:29:00.639Z,57.90
2022-12-26T14:31:41.111Z,57.90
2022-12-26T14:34:47.975Z,57.90
2022-12-26T14:37:24.661Z,57.90
2022-12-26T14:40:09.987Z,57.80
2022-12-26T14:43:16.279Z,57.90
2022-12-26T14:45:50.866Z,58.00
2022-12-26T14:48:49.833Z,57.90
2022-12-26T14:51:48.668Z,58.00
2022-12-26T14:54:37.984Z,58.10
2022-12-26T14:57:47.047Z,58.10
2022-12-26T15:00:34.758Z,58.10
2022-12-26T15:03:49.087Z,58.10
2022-12-26T15:07:20.498Z,58.10
2022-12-26T15:10:37.931Z,58.10
2022-12-26T15:14:05.720Z,58.10
2022-12-26T15:16:57.165Z,58.10
2022-12-26T15:20:13.472Z,58.00
2022-12-26T15:23:33.837Z,58.10
2022-12-26T15:26:26.798Z,58.00
2022-12-26T15:29:41.899Z,57.90
2022-12-26T15:32:17.936Z,58.00
2022-12-26T15:35:07.341Z,58.60
2022-12-26T15:38:14.332Z,58.00
2022-12-26T15:40:47.326Z,58.00
2022-12-26T15:43:44.565Z,57.80
2022-12-26T15:46:22.412Z,57.90
2022-12-26T15:49:25.830Z,57.90
2022-12-26T15:52:08.875Z,57.90
2022-12-26T15:55:18.984Z,57.90
2022-12-26T15:57:58.991Z,57.90
2022-12-26T16:00:30.146Z,57.80
2022-12-26T16:03:18.390Z,57.80
2022-12-26T16:05:59.425Z,57.80
2022-12-26T16:09:09.719Z,57.80
2022-12-26T16:11:51.714Z,57.90
2022-12-26T16:14:32.459Z,57.80
2022-12-26T16:17:22.935Z,57.80
2022-12-26T16:19:53.909Z,57.80
2022-12-26T16:22:47.184Z,57.70
2022-12-26T16:25:21.527Z,57.80
2022-12-26T16:27:53.222Z,57.80
2022-12-26T16:30:24.576Z,57.80
2022-12-26T16:32:54.227Z,57.90
2022-12-26T16:35:27.361Z,58.00
2022-12-26T16:37:59.457Z,58.20
2022-12-26T16:40:33.335Z,58.40
2022-12-26T16:43:07.583Z,58.50
2022-12-26T16:45:38.989Z,58.40
2022-12-26T16:48:09.083Z,58.40
2022-12-26T16:50:47.407Z,58.40
2022-12-26T16:53:19.400Z,58.50
2022-12-26T16:55:51.743Z,58.40
2022-12-26T16:58:25.476Z,58.60
2022-12-26T17:01:08.573Z,58.40
2022-12-26T17:03:44.767Z,58.40
2022-12-26T17:06:18.255Z,58.20
2022-12-26T17:08:50.605Z,58.10
2022-12-26T17:11:30.896Z,58.00
2022-12-26T17:14:01.398Z,57.90
2022-12-26T17:16:32.580Z,57.90
2022-12-26T17:19:15.642Z,57.80
2022-12-26T17:21:44.540Z,57.80
2022-12-26T17:24:27.832Z,57.80
2022-12-26T17:27:20.667Z,57.80
2022-12-26T17:29:56.055Z,57.90
2022-12-26T17:32:33.266Z,57.70
2022-12-26T17:35:08.749Z,57.60
2022-12-26T17:37:40.134Z,57.50
2022-12-26T17:40:22.546Z,57.50
2022-12-26T17:42:56.080Z,57.40
2022-12-26T17:45:28.132Z,57.30
2022-12-26T17:47:58.739Z,57.20
2022-12-26T17:50:33.478Z,57.10
2022-12-26T17:53:06.788Z,57.00
2022-12-26T17:55:36.342Z,57.00
2022-12-26T17:58:06.460Z,57.00
2022-12-26T18:00:35.178Z,57.00
2022-12-26T18:03:06.862Z,57.00
2022-12-26T18:05:36.567Z,56.80
2022-12-26T18:08:06.044Z,56.90
2022-12-26T18:10:37.542Z,56.90
2022-12-26T18:13:11.577Z,56.70
2022-12-26T18:15:40.280Z,56.70
2022-12-26T18:18:22.096Z,56.70
2022-12-26T18:20:51.383Z,56.60
2022-12-26T18:23:20.061Z,56.60
2022-12-26T18:25:54.141Z,56.50
2022-12-26T18:28:24.788Z,56.50
2022-12-26T18:30:53.487Z,56.50
2022-12-26T18:33:22.420Z,56.50
2022-12-26T18:35:51.046Z,56.50
2022-12-26T18:38:22.067Z,56.40
2022-12-26T18:40:53.494Z,56.30
2022-12-26T18:43:23.648Z,56.30
2022-12-26T18:45:53.243Z,56.20
2022-12-26T18:48:21.991Z,56.20
2022-12-26T18:50:50.704Z,56.20
2022-12-26T18:53:20.593Z,56.20
2022-12-26T18:55:49.195Z,56.20
2022-12-26T18:58:20.371Z,56.20
2022-12-26T19:00:52.561Z,56.10
2022-12-26T19:03:21.227Z,56.10
2022-12-26T19:05:49.930Z,56.10
2022-12-26T19:08:18.747Z,56.10
2022-12-26T19:10:47.758Z,56.10
2022-12-26T19:13:16.699Z,56.10
2022-12-26T19:15:49.890Z,56.00
2022-12-26T19:18:18.523Z,55.90
2022-12-26T19:20:47.230Z,55.90
2022-12-26T19:23:15.861Z,55.90
2022-12-26T19:25:44.636Z,55.90
2022-12-26T19:28:13.298Z,55.90
2022-12-26T19:30:42.058Z,55.90
2022-12-26T19:33:12.094Z,55.80
2022-12-26T19:35:40.748Z,55.70
2022-12-26T19:38:09.461Z,55.70
2022-12-26T19:40:38.118Z,55.70
2022-12-26T19:43:06.731Z,55.70
2022-12-26T19:45:35.419Z,55.70
2022-12-26T19:48:04.078Z,55.70
2022-12-26T19:50:35.574Z,55.80
2022-12-26T19:53:04.361Z,55.60
2022-12-26T19:55:33.137Z,55.70
2022-12-26T19:58:01.743Z,55.70
2022-12-26T20:00:30.594Z,55.70
2022-12-26T20:02:59.307Z,55.60
2022-12-26T20:05:28.048Z,55.60
2022-12-26T20:07:58.074Z,55.60
2022-12-26T20:10:26.871Z,55.50
2022-12-26T20:12:55.517Z,55.60
2022-12-26T20:15:24.681Z,55.50
2022-12-26T20:17:53.854Z,55.50
2022-12-26T20:20:24.764Z,55.50
2022-12-26T20:22:53.525Z,55.50
2022-12-26T20:25:23.539Z,55.50
2022-12-26T20:27:52.259Z,55.40
2022-12-26T20:30:20.959Z,55.40
2022-12-26T20:32:49.637Z,55.50
2022-12-26T20:35:18.498Z,55.40
2022-12-26T20:37:47.146Z,56.10
2022-12-26T20:40:15.803Z,55.40
2022-12-26T20:42:45.876Z,55.30
2022-12-26T20:45:14.521Z,55.20
2022-12-26T20:47:43.309Z,55.20
2022-12-26T20:50:12.028Z,55.00
2022-12-26T20:52:40.649Z,54.80
2022-12-26T20:55:10.384Z,54.70
2022-12-26T20:57:39.139Z,54.60
2022-12-26T21:00:11.664Z,54.50
2022-12-26T21:02:40.391Z,54.30
2022-12-26T21:05:27.587Z,54.40
2022-12-26T21:08:14.709Z,54.40
2022-12-26T21:11:08.560Z,54.50
2022-12-26T21:13:59.865Z,54.30
2022-12-26T21:16:51.488Z,54.30
2022-12-26T21:19:38.901Z,54.10
2022-12-26T21:22:27.243Z,54.20
2022-12-26T21:25:14.232Z,54.20
2022-12-26T21:28:01.300Z,54.10
2022-12-26T21:30:48.630Z,54.00
2022-12-26T21:33:44.035Z,53.80
2022-12-26T21:36:33.861Z,53.50
2022-12-26T21:39:20.800Z,53.50
2022-12-26T21:42:09.375Z,53.40
2022-12-26T21:44:56.787Z,53.20
2022-12-26T21:47:43.929Z,53.20
2022-12-26T21:50:32.237Z,53.00
2022-12-26T21:53:21.205Z,52.70
2022-12-26T21:56:08.166Z,52.70
2022-12-26T21:59:13.006Z,52.70
2022-12-26T22:02:00.320Z,52.70
2022-12-26T22:04:46.485Z,52.50
2022-12-26T22:07:35.624Z,52.50
2022-12-26T22:10:40.686Z,52.20
2022-12-26T22:13:27.981Z,52.30
2022-12-26T22:16:16.374Z,52.30
2022-12-26T22:19:03.839Z,52.30
2022-12-26T22:21:51.525Z,52.20
2022-12-26T22:24:40.127Z,52.20
2022-12-26T22:27:27.512Z,52.00
2022-12-26T22:30:15.222Z,52.10
2022-12-26T22:33:02.654Z,52.10
2022-12-26T22:35:50.180Z,52.10
2022-12-26T22:38:39.269Z,52.00
2022-12-26T22:41:28.851Z,51.80
2022-12-26T22:44:16.990Z,51.70
2022-12-26T22:47:04.640Z,51.80
2022-12-26T22:49:51.703Z,51.80
2022-12-26T22:52:39.134Z,51.70
2022-12-26T22:55:26.307Z,51.60
2022-12-26T22:58:14.760Z,51.50
2022-12-26T23:01:01.958Z,51.30
2022-12-26T23:03:49.173Z,51.40
2022-12-26T23:06:38.260Z,51.30
2022-12-26T23:09:26.545Z,51.30
2022-12-26T23:12:32.505Z,51.30
2022-12-26T23:15:24.639Z,51.20
2022-12-26T23:18:44.332Z,50.90
2022-12-26T23:21:45.533Z,50.60
2022-12-26T23:24:34.269Z,51.00
2022-12-26T23:27:38.924Z,51.00
2022-12-26T23:30:31.257Z,51.10
2022-12-26T23:33:18.632Z,50.90
2022-12-26T23:36:06.016Z,51.10
2022-12-26T23:38:53.291Z,51.00
2022-12-26T23:41:40.284Z,51.00
2022-12-26T23:44:27.663Z,51.00
2022-12-26T23:47:16.573Z,51.00
2022-12-26T23:50:04.071Z,50.80
2022-12-26T23:52:51.315Z,50.90
2022-12-26T23:55:42.648Z,50.90
2022-12-26T23:58:30.142Z,50.60
